sensor_id;sensor_type;location;lat;lon;timestamp;pressure;altitude;pressure_sealevel;temperature;humidity
59106;BME280;44891;50.204;8.132;2022-12-18T00:00:22;99391.31;;;-11.20;75.67
59106;BME280;44891;50.204;8.132;2022-12-18T00:04:27;99388.94;;;-11.06;75.41
59106;BME280;44891;50.204;8.132;2022-12-18T00:08:29;99383.16;;;-11.09;75.88
59106;BME280;44891;50.204;8.132;2022-12-18T00:12:32;99384.94;;;-11.29;76.55
59106;BME280;44891;50.204;8.132;2022-12-18T00:16:34;99381.28;;;-11.40;76.91
59106;BME280;44891;50.204;8.132;2022-12-18T00:20:38;99387.16;;;-11.23;77.01
59106;BME280;44891;50.204;8.132;2022-12-18T00:24:40;99388.50;;;-11.33;76.85
59106;BME280;44891;50.204;8.132;2022-12-18T00:28:43;99390.47;;;-11.20;76.67
59106;BME280;44891;50.204;8.132;2022-12-18T00:32:45;99397.47;;;-11.26;75.63
59106;BME280;44891;50.204;8.132;2022-12-18T00:36:47;99393.22;;;-11.25;76.30
59106;BME280;44891;50.204;8.132;2022-12-18T00:40:49;99392.06;;;-11.01;75.03
59106;BME280;44891;50.204;8.132;2022-12-18T00:44:53;99392.13;;;-11.19;74.96
59106;BME280;44891;50.204;8.132;2022-12-18T00:48:55;99388.97;;;-11.61;75.89
59106;BME280;44891;50.204;8.132;2022-12-18T00:52:56;99399.97;;;-11.43;76.04
59106;BME280;44891;50.204;8.132;2022-12-18T00:56:58;99401.03;;;-11.30;75.77
59106;BME280;44891;50.204;8.132;2022-12-18T01:01:02;99395.13;;;-11.30;76.04
59106;BME280;44891;50.204;8.132;2022-12-18T01:05:05;99407.94;;;-11.14;75.22
59106;BME280;44891;50.204;8.132;2022-12-18T01:09:08;99418.13;;;-11.16;75.20
59106;BME280;44891;50.204;8.132;2022-12-18T01:13:11;99415.69;;;-11.17;74.86
59106;BME280;44891;50.204;8.132;2022-12-18T01:17:14;99412.44;;;-11.76;75.48
59106;BME280;44891;50.204;8.132;2022-12-18T01:21:16;99419.94;;;-11.73;76.71
59106;BME280;44891;50.204;8.132;2022-12-18T01:25:18;99437.66;;;-11.54;76.60
59106;BME280;44891;50.204;8.132;2022-12-18T01:29:20;99427.25;;;-11.48;75.92
59106;BME280;44891;50.204;8.132;2022-12-18T01:33:23;99434.78;;;-11.84;76.43
59106;BME280;44891;50.204;8.132;2022-12-18T01:37:25;99426.47;;;-11.69;75.64
59106;BME280;44891;50.204;8.132;2022-12-18T01:41:28;99433.53;;;-11.57;75.03
59106;BME280;44891;50.204;8.132;2022-12-18T01:45:51;99418.22;;;-11.72;74.83
59106;BME280;44891;50.204;8.132;2022-12-18T01:49:54;99414.59;;;-11.67;75.21
59106;BME280;44891;50.204;8.132;2022-12-18T01:53:57;99406.56;;;-11.58;75.08
59106;BME280;44891;50.204;8.132;2022-12-18T01:58:00;99408.06;;;-11.72;75.65
59106;BME280;44891;50.204;8.132;2022-12-18T02:02:03;99407.94;;;-11.69;75.74
59106;BME280;44891;50.204;8.132;2022-12-18T02:06:07;99415.88;;;-11.58;75.02
59106;BME280;44891;50.204;8.132;2022-12-18T02:10:13;99409.25;;;-11.61;75.30
59106;BME280;44891;50.204;8.132;2022-12-18T02:14:19;99411.56;;;-11.56;74.96
59106;BME280;44891;50.204;8.132;2022-12-18T02:18:23;99407.19;;;-11.90;74.78
59106;BME280;44891;50.204;8.132;2022-12-18T02:22:33;99384.56;;;-11.93;76.07
59106;BME280;44891;50.204;8.132;2022-12-18T02:26:42;99382.13;;;-11.77;75.53
59106;BME280;44891;50.204;8.132;2022-12-18T02:30:47;99383.56;;;-11.72;75.88
59106;BME280;44891;50.204;8.132;2022-12-18T02:34:50;99379.38;;;-11.73;75.20
59106;BME280;44891;50.204;8.132;2022-12-18T02:38:53;99378.13;;;-11.64;74.90
59106;BME280;44891;50.204;8.132;2022-12-18T02:43:03;99376.31;;;-11.61;74.20
59106;BME280;44891;50.204;8.132;2022-12-18T02:47:08;99383.81;;;-11.59;73.72
59106;BME280;44891;50.204;8.132;2022-12-18T02:51:13;99389.38;;;-11.70;73.05
59106;BME280;44891;50.204;8.132;2022-12-18T02:55:25;99391.34;;;-11.76;73.81
59106;BME280;44891;50.204;8.132;2022-12-18T02:59:38;99394.94;;;-11.62;74.10
59106;BME280;44891;50.204;8.132;2022-12-18T03:03:45;99406.81;;;-11.81;73.15
59106;BME280;44891;50.204;8.132;2022-12-18T03:07:51;99403.91;;;-11.73;73.94
59106;BME280;44891;50.204;8.132;2022-12-18T03:12:00;99402.19;;;-11.73;73.46
59106;BME280;44891;50.204;8.132;2022-12-18T03:16:23;99402.13;;;-11.71;73.89
59106;BME280;44891;50.204;8.132;2022-12-18T03:20:26;99392.16;;;-11.93;73.38
59106;BME280;44891;50.204;8.132;2022-12-18T03:24:31;99385.66;;;-11.99;73.62
59106;BME280;44891;50.204;8.132;2022-12-18T03:28:35;99385.78;;;-12.02;74.13
59106;BME280;44891;50.204;8.132;2022-12-18T03:32:41;99381.53;;;-12.20;74.90
59106;BME280;44891;50.204;8.132;2022-12-18T03:36:44;99377.13;;;-12.17;74.23
59106;BME280;44891;50.204;8.132;2022-12-18T03:40:50;99377.13;;;-12.17;73.50
59106;BME280;44891;50.204;8.132;2022-12-18T03:45:01;99374.41;;;-12.12;73.95
59106;BME280;44891;50.204;8.132;2022-12-18T03:49:08;99377.38;;;-12.42;74.34
59106;BME280;44891;50.204;8.132;2022-12-18T03:53:16;99374.78;;;-12.21;74.27
59106;BME280;44891;50.204;8.132;2022-12-18T03:57:22;99383.09;;;-12.18;74.16
59106;BME280;44891;50.204;8.132;2022-12-18T04:01:30;99369.06;;;-12.25;74.33
59106;BME280;44891;50.204;8.132;2022-12-18T04:05:35;99372.59;;;-12.29;74.38
59106;BME280;44891;50.204;8.132;2022-12-18T04:09:40;99361.31;;;-12.22;74.11
59106;BME280;44891;50.204;8.132;2022-12-18T04:13:43;99357.63;;;-12.33;74.49
59106;BME280;44891;50.204;8.132;2022-12-18T04:17:53;99356.81;;;-12.34;75.14
59106;BME280;44891;50.204;8.132;2022-12-18T04:21:59;99353.03;;;-12.44;75.36
59106;BME280;44891;50.204;8.132;2022-12-18T04:26:04;99351.28;;;-12.23;75.15
59106;BME280;44891;50.204;8.132;2022-12-18T04:30:20;99342.94;;;-12.25;74.76
59106;BME280;44891;50.204;8.132;2022-12-18T04:34:23;99339.38;;;-12.40;74.22
59106;BME280;44891;50.204;8.132;2022-12-18T04:38:29;99332.34;;;-12.15;73.76
59106;BME280;44891;50.204;8.132;2022-12-18T04:42:38;99344.56;;;-12.24;73.85
59106;BME280;44891;50.204;8.132;2022-12-18T04:46:40;99346.69;;;-12.34;74.27
59106;BME280;44891;50.204;8.132;2022-12-18T04:50:42;99354.91;;;-12.10;73.83
59106;BME280;44891;50.204;8.132;2022-12-18T04:54:45;99352.69;;;-12.37;73.77
59106;BME280;44891;50.204;8.132;2022-12-18T04:58:47;99363.72;;;-12.38;74.08
59106;BME280;44891;50.204;8.132;2022-12-18T05:02:49;99357.69;;;-12.35;73.60
59106;BME280;44891;50.204;8.132;2022-12-18T05:06:51;99352.25;;;-12.26;73.49
59106;BME280;44891;50.204;8.132;2022-12-18T05:10:59;99361.50;;;-12.45;74.25
59106;BME280;44891;50.204;8.132;2022-12-18T05:15:01;99366.78;;;-12.31;73.60
59106;BME280;44891;50.204;8.132;2022-12-18T05:19:03;99363.00;;;-12.41;74.06
59106;BME280;44891;50.204;8.132;2022-12-18T05:23:05;99361.69;;;-12.50;74.10
59106;BME280;44891;50.204;8.132;2022-12-18T05:27:08;99365.53;;;-12.41;74.60
59106;BME280;44891;50.204;8.132;2022-12-18T05:31:10;99362.31;;;-12.45;74.67
59106;BME280;44891;50.204;8.132;2022-12-18T05:35:12;99349.22;;;-12.34;74.40
59106;BME280;44891;50.204;8.132;2022-12-18T05:39:14;99352.31;;;-12.48;74.43
59106;BME280;44891;50.204;8.132;2022-12-18T05:43:18;99344.03;;;-12.31;74.00
59106;BME280;44891;50.204;8.132;2022-12-18T05:47:20;99343.94;;;-12.29;73.49
59106;BME280;44891;50.204;8.132;2022-12-18T05:51:22;99338.66;;;-12.44;73.52
59106;BME280;44891;50.204;8.132;2022-12-18T05:55:24;99334.91;;;-12.35;73.80
59106;BME280;44891;50.204;8.132;2022-12-18T05:59:28;99330.41;;;-12.47;74.42
59106;BME280;44891;50.204;8.132;2022-12-18T06:03:30;99345.03;;;-12.35;73.94
59106;BME280;44891;50.204;8.132;2022-12-18T06:07:31;99338.69;;;-12.25;73.92
59106;BME280;44891;50.204;8.132;2022-12-18T06:11:34;99353.47;;;-12.16;73.49
59106;BME280;44891;50.204;8.132;2022-12-18T06:15:37;99356.94;;;-12.37;73.42
59106;BME280;44891;50.204;8.132;2022-12-18T06:19:39;99361.09;;;-12.36;73.07
59106;BME280;44891;50.204;8.132;2022-12-18T06:23:41;99358.50;;;-12.35;73.85
59106;BME280;44891;50.204;8.132;2022-12-18T06:27:44;99367.56;;;-12.49;73.80
59106;BME280;44891;50.204;8.132;2022-12-18T06:31:47;99376.81;;;-12.48;74.42
59106;BME280;44891;50.204;8.132;2022-12-18T06:35:49;99369.22;;;-12.69;74.60
59106;BME280;44891;50.204;8.132;2022-12-18T06:39:50;99366.75;;;-12.50;74.42
59106;BME280;44891;50.204;8.132;2022-12-18T06:43:52;99382.66;;;-12.46;74.19
59106;BME280;44891;50.204;8.132;2022-12-18T06:47:56;99381.38;;;-12.77;75.10
59106;BME280;44891;50.204;8.132;2022-12-18T06:51:58;99381.91;;;-12.29;75.01
59106;BME280;44891;50.204;8.132;2022-12-18T06:56:00;99374.66;;;-12.37;73.49
59106;BME280;44891;50.204;8.132;2022-12-18T07:00:02;99378.47;;;-12.47;73.85
59106;BME280;44891;50.204;8.132;2022-12-18T07:04:07;99382.91;;;-12.52;74.34
59106;BME280;44891;50.204;8.132;2022-12-18T07:08:09;99387.72;;;-12.67;73.99
59106;BME280;44891;50.204;8.132;2022-12-18T07:12:11;99384.97;;;-12.62;75.03
59106;BME280;44891;50.204;8.132;2022-12-18T07:16:13;99390.94;;;-12.63;75.25
59106;BME280;44891;50.204;8.132;2022-12-18T07:20:17;99379.03;;;-12.41;74.89
59106;BME280;44891;50.204;8.132;2022-12-18T07:24:19;99366.97;;;-12.36;73.88
59106;BME280;44891;50.204;8.132;2022-12-18T07:28:21;99375.16;;;-12.49;74.22
59106;BME280;44891;50.204;8.132;2022-12-18T07:32:23;99380.38;;;-12.52;75.14
59106;BME280;44891;50.204;8.132;2022-12-18T07:36:26;99376.28;;;-12.36;74.93
59106;BME280;44891;50.204;8.132;2022-12-18T07:40:28;99378.19;;;-12.21;74.30
59106;BME280;44891;50.204;8.132;2022-12-18T07:44:30;99379.66;;;-12.17;73.55
59106;BME280;44891;50.204;8.132;2022-12-18T07:48:32;99374.53;;;-12.34;74.69
59106;BME280;44891;50.204;8.132;2022-12-18T07:52:35;99379.44;;;-12.31;74.78
59106;BME280;44891;50.204;8.132;2022-12-18T07:56:37;99391.63;;;-12.39;74.54
59106;BME280;44891;50.204;8.132;2022-12-18T08:00:39;99398.94;;;-12.33;74.90
59106;BME280;44891;50.204;8.132;2022-12-18T08:04:41;99401.53;;;-12.14;74.89
59106;BME280;44891;50.204;8.132;2022-12-18T08:08:44;99384.41;;;-12.09;74.77
59106;BME280;44891;50.204;8.132;2022-12-18T08:12:48;99384.34;;;-12.08;75.41
59106;BME280;44891;50.204;8.132;2022-12-18T08:16:50;99387.84;;;-11.91;75.49
59106;BME280;44891;50.204;8.132;2022-12-18T08:20:52;99388.91;;;-11.78;74.91
59106;BME280;44891;50.204;8.132;2022-12-18T08:24:55;99386.59;;;-11.28;74.81
59106;BME280;44891;50.204;8.132;2022-12-18T08:28:57;99379.06;;;-11.12;72.93
59106;BME280;44891;50.204;8.132;2022-12-18T08:33:00;99371.16;;;-11.06;72.90
59106;BME280;44891;50.204;8.132;2022-12-18T08:37:01;99355.53;;;-10.63;72.28
59106;BME280;44891;50.204;8.132;2022-12-18T08:41:06;99349.09;;;-10.20;71.37
59106;BME280;44891;50.204;8.132;2022-12-18T08:45:08;99348.47;;;-9.61;70.01
59106;BME280;44891;50.204;8.132;2022-12-18T08:49:11;99344.25;;;-9.00;68.56
59106;BME280;44891;50.204;8.132;2022-12-18T08:53:12;99331.50;;;-8.70;67.46
59106;BME280;44891;50.204;8.132;2022-12-18T08:57:16;99324.59;;;-8.68;68.11
59106;BME280;44891;50.204;8.132;2022-12-18T09:01:18;99340.84;;;-8.28;67.57
59106;BME280;44891;50.204;8.132;2022-12-18T09:05:20;99343.41;;;-7.58;64.99
59106;BME280;44891;50.204;8.132;2022-12-18T09:09:21;99357.72;;;-7.16;64.25
59106;BME280;44891;50.204;8.132;2022-12-18T09:13:25;99371.19;;;-6.87;63.74
59106;BME280;44891;50.204;8.132;2022-12-18T09:17:26;99358.94;;;-6.56;63.53
59106;BME280;44891;50.204;8.132;2022-12-18T09:21:29;99360.41;;;-6.52;63.53
59106;BME280;44891;50.204;8.132;2022-12-18T09:25:32;99376.72;;;-6.54;64.31
59106;BME280;44891;50.204;8.132;2022-12-18T09:29:37;99375.19;;;-5.93;63.82
59106;BME280;44891;50.204;8.132;2022-12-18T09:33:39;99368.19;;;-5.31;64.30
59106;BME280;44891;50.204;8.132;2022-12-18T09:37:41;99347.25;;;-4.66;62.10
59106;BME280;44891;50.204;8.132;2022-12-18T09:41:47;99347.75;;;-4.27;61.33
59106;BME280;44891;50.204;8.132;2022-12-18T09:45:56;99358.31;;;-4.65;62.42
59106;BME280;44891;50.204;8.132;2022-12-18T09:50:01;99360.09;;;-4.89;63.42
59106;BME280;44891;50.204;8.132;2022-12-18T09:54:05;99359.06;;;-4.87;70.47
59106;BME280;44891;50.204;8.132;2022-12-18T09:58:12;99371.91;;;-3.96;75.14
59106;BME280;44891;50.204;8.132;2022-12-18T10:02:18;99366.50;;;-3.16;74.18
59106;BME280;44891;50.204;8.132;2022-12-18T10:06:22;99360.22;;;-2.49;72.67
59106;BME280;44891;50.204;8.132;2022-12-18T10:10:27;99346.50;;;-2.29;71.64
59106;BME280;44891;50.204;8.132;2022-12-18T10:14:34;99329.44;;;-2.81;72.99
59106;BME280;44891;50.204;8.132;2022-12-18T10:18:43;99339.22;;;-2.96;73.74
59106;BME280;44891;50.204;8.132;2022-12-18T10:22:50;99343.94;;;-3.12;74.47
59106;BME280;44891;50.204;8.132;2022-12-18T10:26:55;99336.59;;;-3.49;75.84
59106;BME280;44891;50.204;8.132;2022-12-18T10:30:58;99337.78;;;-3.53;77.18
59106;BME280;44891;50.204;8.132;2022-12-18T10:35:01;99340.81;;;-3.59;77.37
59106;BME280;44891;50.204;8.132;2022-12-18T10:39:14;99268.06;;;-3.80;77.67
59106;BME280;44891;50.204;8.132;2022-12-18T10:43:19;99336.72;;;-3.18;77.42
59106;BME280;44891;50.204;8.132;2022-12-18T10:47:21;99271.63;;;-3.29;77.49
59106;BME280;44891;50.204;8.132;2022-12-18T10:51:25;99322.66;;;-3.03;75.76
59106;BME280;44891;50.204;8.132;2022-12-18T10:55:30;99334.47;;;-3.12;76.18
59106;BME280;44891;50.204;8.132;2022-12-18T10:59:33;99335.75;;;-3.06;75.97
59106;BME280;44891;50.204;8.132;2022-12-18T11:03:58;99324.53;;;-3.05;76.23
59106;BME280;44891;50.204;8.132;2022-12-18T11:08:02;99312.41;;;-3.14;76.10
59106;BME280;44891;50.204;8.132;2022-12-18T11:12:06;99317.75;;;-3.06;76.82
59106;BME280;44891;50.204;8.132;2022-12-18T11:16:18;99305.88;;;-3.18;75.71
59106;BME280;44891;50.204;8.132;2022-12-18T11:20:21;99325.47;;;-3.06;76.20
59106;BME280;44891;50.204;8.132;2022-12-18T11:24:28;99310.13;;;-2.96;74.90
59106;BME280;44891;50.204;8.132;2022-12-18T11:28:35;99316.81;;;-3.05;74.23
59106;BME280;44891;50.204;8.132;2022-12-18T11:32:37;99313.72;;;-3.20;75.47
59106;BME280;44891;50.204;8.132;2022-12-18T11:36:41;99306.03;;;-2.99;74.80
59106;BME280;44891;50.204;8.132;2022-12-18T11:40:45;99314.66;;;-2.58;73.18
59106;BME280;44891;50.204;8.132;2022-12-18T11:44:49;99318.97;;;-3.10;74.26
59106;BME280;44891;50.204;8.132;2022-12-18T11:48:54;99314.53;;;-3.19;75.18
59106;BME280;44891;50.204;8.132;2022-12-18T11:52:58;99316.97;;;-3.18;75.78
59106;BME280;44891;50.204;8.132;2022-12-18T11:57:05;99322.41;;;-3.00;75.14
59106;BME280;44891;50.204;8.132;2022-12-18T12:01:13;99316.63;;;-3.45;75.51
59106;BME280;44891;50.204;8.132;2022-12-18T12:05:20;99321.28;;;-3.39;75.61
59106;BME280;44891;50.204;8.132;2022-12-18T12:09:27;99313.38;;;-3.47;76.65
59106;BME280;44891;50.204;8.132;2022-12-18T12:13:36;99299.91;;;-3.40;75.79
59106;BME280;44891;50.204;8.132;2022-12-18T12:17:41;99300.97;;;-3.74;77.10
59106;BME280;44891;50.204;8.132;2022-12-18T12:21:46;99303.69;;;-4.21;78.68
59106;BME280;44891;50.204;8.132;2022-12-18T12:25:51;99289.00;;;-4.19;79.54
59106;BME280;44891;50.204;8.132;2022-12-18T12:30:00;99295.31;;;-4.45;80.30
59106;BME280;44891;50.204;8.132;2022-12-18T12:34:06;99282.72;;;-4.37;80.46
59106;BME280;44891;50.204;8.132;2022-12-18T12:38:10;99295.75;;;-4.51;80.56
59106;BME280;44891;50.204;8.132;2022-12-18T12:42:16;99296.56;;;-4.73;81.57
59106;BME280;44891;50.204;8.132;2022-12-18T12:46:39;99299.78;;;-4.94;82.83
59106;BME280;44891;50.204;8.132;2022-12-18T12:50:43;99310.72;;;-4.92;84.07
59106;BME280;44891;50.204;8.132;2022-12-18T12:54:45;99311.25;;;-5.10;84.76
59106;BME280;44891;50.204;8.132;2022-12-18T12:58:51;99295.53;;;-5.17;85.81
59106;BME280;44891;50.204;8.132;2022-12-18T13:02:59;99284.28;;;-5.38;86.71
59106;BME280;44891;50.204;8.132;2022-12-18T13:07:04;99268.91;;;-5.38;86.79
59106;BME280;44891;50.204;8.132;2022-12-18T13:11:12;99269.13;;;-5.41;87.16
59106;BME280;44891;50.204;8.132;2022-12-18T13:15:47;99259.09;;;-5.21;86.84
59106;BME280;44891;50.204;8.132;2022-12-18T13:19:52;99173.69;;;-5.66;86.28
59106;BME280;44891;50.204;8.132;2022-12-18T13:24:14;99247.44;;;-5.25;86.29
59106;BME280;44891;50.204;8.132;2022-12-18T13:28:16;99245.47;;;-5.10;86.22
59106;BME280;44891;50.204;8.132;2022-12-18T13:32:19;99253.66;;;-5.05;86.08
59106;BME280;44891;50.204;8.132;2022-12-18T13:36:30;99253.66;;;-5.05;85.24
59106;BME280;44891;50.204;8.132;2022-12-18T13:44:55;99252.00;;;-5.17;85.84
59106;BME280;44891;50.204;8.132;2022-12-18T13:48:58;99254.19;;;-5.24;85.90
59106;BME280;44891;50.204;8.132;2022-12-18T13:53:02;99249.44;;;-5.17;85.13
59106;BME280;44891;50.204;8.132;2022-12-18T13:57:05;99243.97;;;-5.12;85.34
59106;BME280;44891;50.204;8.132;2022-12-18T14:01:15;99245.97;;;-5.05;85.27
59106;BME280;44891;50.204;8.132;2022-12-18T14:05:23;99243.19;;;-5.02;84.30
59106;BME280;44891;50.204;8.132;2022-12-18T14:09:28;99234.34;;;-4.86;83.46
59106;BME280;44891;50.204;8.132;2022-12-18T14:13:32;99238.31;;;-4.94;83.27
59106;BME280;44891;50.204;8.132;2022-12-18T14:17:35;99253.69;;;-4.94;83.52
59106;BME280;44891;50.204;8.132;2022-12-18T14:21:37;99252.97;;;-4.84;82.99
59106;BME280;44891;50.204;8.132;2022-12-18T14:25:45;99248.56;;;-4.94;83.07
59106;BME280;44891;50.204;8.132;2022-12-18T14:29:47;99253.69;;;-4.94;82.91
59106;BME280;44891;50.204;8.132;2022-12-18T14:33:49;99258.09;;;-4.84;83.31
59106;BME280;44891;50.204;8.132;2022-12-18T14:37:51;99246.72;;;-4.80;83.17
59106;BME280;44891;50.204;8.132;2022-12-18T14:41:54;99246.91;;;-4.83;83.36
59106;BME280;44891;50.204;8.132;2022-12-18T14:45:56;99254.59;;;-4.83;83.57
59106;BME280;44891;50.204;8.132;2022-12-18T14:49:58;99264.03;;;-4.84;83.24
59106;BME280;44891;50.204;8.132;2022-12-18T14:54:01;99259.28;;;-4.88;83.32
59106;BME280;44891;50.204;8.132;2022-12-18T14:58:05;99253.66;;;-5.05;84.32
59106;BME280;44891;50.204;8.132;2022-12-18T15:02:10;99246.22;;;-4.97;84.18
59106;BME280;44891;50.204;8.132;2022-12-18T15:06:15;99238.03;;;-5.13;84.59
59106;BME280;44891;50.204;8.132;2022-12-18T15:10:18;99235.47;;;-5.13;84.97
59106;BME280;44891;50.204;8.132;2022-12-18T15:14:29;99237.88;;;-5.23;85.64
59106;BME280;44891;50.204;8.132;2022-12-18T15:18:33;99228.22;;;-5.30;86.30
59106;BME280;44891;50.204;8.132;2022-12-18T15:22:36;99233.41;;;-5.43;87.27
59106;BME280;44891;50.204;8.132;2022-12-18T15:26:39;99239.78;;;-5.49;87.92
59106;BME280;44891;50.204;8.132;2022-12-18T15:30:42;99223.97;;;-5.42;87.76
59106;BME280;44891;50.204;8.132;2022-12-18T15:35:03;99218.78;;;-5.41;88.01
59106;BME280;44891;50.204;8.132;2022-12-18T15:39:05;99217.22;;;-5.43;88.67
59106;BME280;44891;50.204;8.132;2022-12-18T15:43:07;99227.25;;;-5.40;88.67
59106;BME280;44891;50.204;8.132;2022-12-18T15:47:28;99216.78;;;-5.37;88.69
59106;BME280;44891;50.204;8.132;2022-12-18T15:51:31;99212.97;;;-5.32;88.75
59106;BME280;44891;50.204;8.132;2022-12-18T15:55:34;99220.66;;;-5.32;88.99
59106;BME280;44891;50.204;8.132;2022-12-18T15:59:53;99207.53;;;-5.27;89.05
59106;BME280;44891;50.204;8.132;2022-12-18T16:03:59;99211.81;;;-5.28;89.49
59106;BME280;44891;50.204;8.132;2022-12-18T16:08:01;99212.41;;;-5.24;89.74
59106;BME280;44891;50.204;8.132;2022-12-18T16:12:03;99210.97;;;-5.28;90.42
59106;BME280;44891;50.204;8.132;2022-12-18T16:16:07;99211.38;;;-5.22;90.37
59106;BME280;44891;50.204;8.132;2022-12-18T16:20:13;99200.56;;;-5.14;90.17
59106;BME280;44891;50.204;8.132;2022-12-18T16:24:15;99205.00;;;-5.05;89.80
59106;BME280;44891;50.204;8.132;2022-12-18T16:28:17;99196.97;;;-5.00;89.78
59106;BME280;44891;50.204;8.132;2022-12-18T16:32:20;99201.03;;;-4.98;89.79
59106;BME280;44891;50.204;8.132;2022-12-18T16:36:24;99204.19;;;-4.94;89.94
59106;BME280;44891;50.204;8.132;2022-12-18T16:40:25;99208.94;;;-4.89;89.73
59106;BME280;44891;50.204;8.132;2022-12-18T16:44:27;99205.94;;;-4.83;89.45
59106;BME280;44891;50.204;8.132;2022-12-18T16:48:29;99196.16;;;-4.78;89.09
59106;BME280;44891;50.204;8.132;2022-12-18T16:52:33;99197.31;;;-4.71;88.59
59106;BME280;44891;50.204;8.132;2022-12-18T16:56:35;99204.41;;;-4.63;88.47
59106;BME280;44891;50.204;8.132;2022-12-18T17:00:37;99210.13;;;-4.60;88.34
59106;BME280;44891;50.204;8.132;2022-12-18T17:04:40;99207.09;;;-4.54;88.69
59106;BME280;44891;50.204;8.132;2022-12-18T17:08:43;99214.78;;;-4.54;89.04
59106;BME280;44891;50.204;8.132;2022-12-18T17:12:45;99200.69;;;-4.48;88.70
59106;BME280;44891;50.204;8.132;2022-12-18T17:16:47;99193.44;;;-4.43;88.29
59106;BME280;44891;50.204;8.132;2022-12-18T17:20:49;99165.16;;;-4.42;87.71
59106;BME280;44891;50.204;8.132;2022-12-18T17:24:52;99158.13;;;-4.40;88.27
59106;BME280;44891;50.204;8.132;2022-12-18T17:28:55;99157.56;;;-4.43;88.33
59106;BME280;44891;50.204;8.132;2022-12-18T17:32:57;99162.59;;;-4.42;87.88
59106;BME280;44891;50.204;8.132;2022-12-18T17:36:59;99174.34;;;-4.39;88.43
59106;BME280;44891;50.204;8.132;2022-12-18T17:41:04;99168.84;;;-4.34;87.88
59106;BME280;44891;50.204;8.132;2022-12-18T17:45:06;99171.03;;;-4.30;87.38
59106;BME280;44891;50.204;8.132;2022-12-18T17:49:09;99153.00;;;-4.28;87.48
59106;BME280;44891;50.204;8.132;2022-12-18T17:53:12;99159.03;;;-4.29;87.67
59106;BME280;44891;50.204;8.132;2022-12-18T17:57:16;99155.78;;;-4.31;87.61
59106;BME280;44891;50.204;8.132;2022-12-18T18:01:18;99163.94;;;-4.26;87.61
59106;BME280;44891;50.204;8.132;2022-12-18T18:05:21;99170.69;;;-4.25;88.00
59106;BME280;44891;50.204;8.132;2022-12-18T18:09:23;99172.19;;;-4.23;87.44
59106;BME280;44891;50.204;8.132;2022-12-18T18:13:26;99182.69;;;-4.26;87.80
59106;BME280;44891;50.204;8.132;2022-12-18T18:17:46;99163.19;;;-4.17;87.10
59106;BME280;44891;50.204;8.132;2022-12-18T18:21:49;99166.91;;;-4.10;87.12
59106;BME280;44891;50.204;8.132;2022-12-18T18:25:52;99160.75;;;-4.07;87.04
59106;BME280;44891;50.204;8.132;2022-12-18T18:29:55;99160.63;;;-4.06;86.69
59106;BME280;44891;50.204;8.132;2022-12-18T18:33:57;99160.63;;;-4.06;86.94
59106;BME280;44891;50.204;8.132;2022-12-18T18:37:59;99163.44;;;-4.09;86.45
59106;BME280;44891;50.204;8.132;2022-12-18T18:42:03;99163.88;;;-4.04;87.05
59106;BME280;44891;50.204;8.132;2022-12-18T18:46:08;99148.13;;;-3.99;86.99
59106;BME280;44891;50.204;8.132;2022-12-18T18:50:12;99142.84;;;-3.98;86.95
59106;BME280;44891;50.204;8.132;2022-12-18T18:54:14;99124.75;;;-3.96;86.46
59106;BME280;44891;50.204;8.132;2022-12-18T18:58:15;99107.50;;;-3.94;86.31
59106;BME280;44891;50.204;8.132;2022-12-18T19:02:19;99100.50;;;-3.92;85.97
59106;BME280;44891;50.204;8.132;2022-12-18T19:06:22;99105.50;;;-3.91;86.42
59106;BME280;44891;50.204;8.132;2022-12-18T19:10:24;99101.19;;;-3.90;86.54
59106;BME280;44891;50.204;8.132;2022-12-18T19:14:26;99094.59;;;-3.83;86.18
59106;BME280;44891;50.204;8.132;2022-12-18T19:18:29;99095.00;;;-3.88;86.10
59106;BME280;44891;50.204;8.132;2022-12-18T19:22:31;99096.63;;;-3.87;86.57
59106;BME280;44891;50.204;8.132;2022-12-18T19:26:33;99097.63;;;-3.78;86.08
59106;BME280;44891;50.204;8.132;2022-12-18T19:30:36;99103.47;;;-3.76;86.09
59106;BME280;44891;50.204;8.132;2022-12-18T19:34:40;99075.34;;;-3.77;85.72
59106;BME280;44891;50.204;8.132;2022-12-18T19:38:42;99074.91;;;-3.83;86.09
59106;BME280;44891;50.204;8.132;2022-12-18T19:42:44;99074.38;;;-3.76;86.41
59106;BME280;44891;50.204;8.132;2022-12-18T19:46:48;99083.47;;;-3.72;85.82
59106;BME280;44891;50.204;8.132;2022-12-18T19:50:52;99078.34;;;-3.72;85.55
59106;BME280;44891;50.204;8.132;2022-12-18T19:54:54;99076.34;;;-3.69;85.68
59106;BME280;44891;50.204;8.132;2022-12-18T19:58:56;99079.72;;;-3.68;85.75
59106;BME280;44891;50.204;8.132;2022-12-18T20:02:58;99071.53;;;-3.62;85.47
59106;BME280;44891;50.204;8.132;2022-12-18T20:07:01;99081.78;;;-3.62;85.77
59106;BME280;44891;50.204;8.132;2022-12-18T20:11:03;99086.78;;;-3.61;85.77
59106;BME280;44891;50.204;8.132;2022-12-18T20:15:06;99096.69;;;-3.56;85.55
59106;BME280;44891;50.204;8.132;2022-12-18T20:19:08;99109.78;;;-3.59;85.64
59106;BME280;44891;50.204;8.132;2022-12-18T20:23:11;99099.81;;;-3.52;85.77
59106;BME280;44891;50.204;8.132;2022-12-18T20:27:13;99083.59;;;-3.53;85.28
59106;BME280;44891;50.204;8.132;2022-12-18T20:31:15;99092.78;;;-3.50;85.63
59106;BME280;44891;50.204;8.132;2022-12-18T20:35:17;99067.00;;;-3.49;85.11
59106;BME280;44891;50.204;8.132;2022-12-18T20:39:21;99074.00;;;-3.51;85.19
59106;BME280;44891;50.204;8.132;2022-12-18T20:43:24;99072.94;;;-3.48;84.63
59106;BME280;44891;50.204;8.132;2022-12-18T20:47:26;99073.63;;;-3.46;84.97
59106;BME280;44891;50.204;8.132;2022-12-18T20:51:28;99063.66;;;-3.40;84.98
59106;BME280;44891;50.204;8.132;2022-12-18T20:55:32;99082.75;;;-3.33;84.84
59106;BME280;44891;50.204;8.132;2022-12-18T20:59:34;99081.94;;;-3.33;84.13
59106;BME280;44891;50.204;8.132;2022-12-18T21:03:36;99073.69;;;-3.37;84.41
59106;BME280;44891;50.204;8.132;2022-12-18T21:07:38;99077.59;;;-3.33;85.21
59106;BME280;44891;50.204;8.132;2022-12-18T21:11:41;99078.28;;;-3.31;85.18
59106;BME280;44891;50.204;8.132;2022-12-18T21:16:01;99082.50;;;-3.30;85.83
59106;BME280;44891;50.204;8.132;2022-12-18T21:20:03;99090.22;;;-3.30;86.02
59106;BME280;44891;50.204;8.132;2022-12-18T21:24:05;99084.13;;;-3.29;86.29
59106;BME280;44891;50.204;8.132;2022-12-18T21:28:08;99076.81;;;-3.33;86.49